Time;durP1;ratioP1;P1;durP2;ratioP2;P2;SDS_P1;SDS_P2;PMS_P1;PMS_P2;Temp;Humidity;BMP_temperature;BMP_pressure;BME280_temperature;BME280_humidity;BME280_pressure;Samples;Min_cycle;Max_cycle;Signal;HPM_P1;HPM_P2
2023/09/24 00:01:13;;;;;;;3.33;2.63;;;14.20;67.00;;;;;;5011149;28;20041;-50
2023/09/24 00:03:40;;;;;;;3.08;2.50;;;14.20;67.00;;;;;;5011229;28;20603;-48
2023/09/24 00:06:09;;;;;;;2.60;2.40;;;14.10;66.90;;;;;;5010201;28;20073;-51
2023/09/24 00:08:36;;;;;;;2.85;2.60;;;14.10;67.20;;;;;;5012200;28;20117;-49
2023/09/24 00:11:03;;;;;;;2.55;2.35;;;14.10;67.30;;;;;;5012090;28;20057;-52
2023/09/24 00:13:34;;;;;;;4.10;2.53;;;14.10;67.30;;;;;;5010879;28;20041;-51
2023/09/24 00:16:06;;;;;;;3.17;2.88;;;14.10;67.20;;;;;;5011192;28;20112;-50
2023/09/24 00:18:36;;;;;;;3.30;2.63;;;14.10;67.20;;;;;;5011975;28;20139;-52
2023/09/24 00:21:06;;;;;;;2.88;1.95;;;14.00;67.10;;;;;;5010770;28;20045;-49
2023/09/24 00:23:41;;;;;;;2.58;2.38;;;14.00;67.00;;;;;;5011642;28;20045;-49
2023/09/24 00:26:07;;;;;;;2.65;1.90;;;14.00;66.90;;;;;;5011015;28;20752;-52
2023/09/24 00:28:44;;;;;;;2.60;2.13;;;14.00;66.90;;;;;;5011997;28;20050;-49
2023/09/24 00:31:14;;;;;;;3.55;2.42;;;14.00;66.90;;;;;;5006689;28;20129;-51
2023/09/24 00:33:40;;;;;;;3.75;2.47;;;13.90;67.50;;;;;;5003040;28;20455;-53
2023/09/24 00:36:07;;;;;;;2.42;2.20;;;13.90;66.80;;;;;;5007879;28;20052;-53
2023/09/24 00:38:37;;;;;;;4.10;2.33;;;13.90;66.90;;;;;;5011746;28;20084;-54
2023/09/24 00:41:07;;;;;;;3.13;2.30;;;13.90;66.90;;;;;;4993765;28;20046;-51
2023/09/24 00:43:35;;;;;;;2.33;1.92;;;13.80;66.90;;;;;;4986995;28;20049;-55
2023/09/24 00:46:09;;;;;;;2.33;2.13;;;13.80;66.80;;;;;;5011668;28;20619;-53
2023/09/24 00:48:36;;;;;;;;;;;13.80;66.80;;;;;;5011806;28;20050;-54
2023/09/24 00:51:18;;;;;;;3.85;2.95;;;13.80;66.80;;;;;;4993309;28;20031;-55
2023/09/24 00:53:53;;;;;;;2.22;2.00;;;13.80;66.60;;;;;;5008617;28;20045;-53
2023/09/24 00:56:23;;;;;;;3.42;2.30;;;13.70;66.50;;;;;;5010196;28;20054;-53
2023/09/24 00:58:51;;;;;;;2.35;1.85;;;13.70;66.70;;;;;;5010597;28;20074;-55
2023/09/24 01:01:24;;;;;;;2.30;2.10;;;13.70;66.60;;;;;;5009560;28;20121;-55
2023/09/24 01:03:52;;;;;;;2.55;2.08;;;13.60;66.70;;;;;;4990218;28;20066;-52
2023/09/24 01:06:20;;;;;;;3.58;2.20;;;13.60;66.70;;;;;;5011059;28;20045;-55
2023/09/24 01:08:48;;;;;;;2.40;2.03;;;13.60;66.80;;;;;;5010879;28;20519;-53
2023/09/24 01:11:15;;;;;;;3.83;2.67;;;13.50;67.00;;;;;;4993725;28;20056;-52
2023/09/24 01:13:45;;;;;;;3.47;2.25;;;13.50;67.20;;;;;;5005062;28;20096;-52
2023/09/24 01:16:15;;;;;;;2.00;1.77;;;13.60;67.30;;;;;;4993866;28;20042;-53
2023/09/24 01:18:45;;;;;;;4.72;2.30;;;13.50;67.50;;;;;;5009265;28;20411;-51
2023/09/24 01:21:16;;;;;;;3.08;2.50;;;13.50;67.80;;;;;;4991607;28;20145;-51
2023/09/24 01:23:45;;;;;;;5.75;2.38;;;13.50;67.80;;;;;;5005759;28;20042;-51
2023/09/24 01:26:21;;;;;;;3.90;2.67;;;13.70;67.90;;;;;;5002680;28;20057;-52
2023/09/24 01:28:48;;;;;;;5.72;2.90;;;13.60;68.10;;;;;;5006127;28;20050;-51
2023/09/24 01:31:20;;;;;;;3.50;2.38;;;13.50;68.10;;;;;;5017315;28;20333;-52
2023/09/24 01:33:49;;;;;;;;;;;13.50;68.20;;;;;;5009851;28;20050;-53
2023/09/24 01:36:21;;;;;;;2.22;1.98;;;13.60;68.50;;;;;;5010333;28;20434;-53
2023/09/24 01:38:53;;;;;;;2.28;2.08;;;13.60;67.80;;;;;;5004805;28;20054;-51
2023/09/24 01:41:25;;;;;;;2.60;2.00;;;13.60;68.10;;;;;;4991071;28;20046;-53
2023/09/24 01:43:54;;;;;;;3.03;2.10;;;13.60;68.10;;;;;;5009873;28;20046;-50
2023/09/24 01:46:28;;;;;;;3.13;2.30;;;13.60;68.40;;;;;;5015535;28;20147;-51
2023/09/24 01:49:04;;;;;;;3.88;1.95;;;13.50;68.40;;;;;;5010162;28;20511;-52
2023/09/24 01:51:34;;;;;;;2.92;2.33;;;13.60;68.50;;;;;;5008730;28;20042;-50
2023/09/24 01:54:05;;;;;;;5.18;3.05;;;13.50;68.50;;;;;;5011245;28;20472;-51
2023/09/24 01:56:35;;;;;;;4.00;2.58;;;13.50;68.70;;;;;;5009550;28;20042;-50
2023/09/24 01:59:05;;;;;;;6.10;3.10;;;13.60;68.90;;;;;;4989919;28;20052;-50
2023/09/24 02:01:33;;;;;;;2.42;1.98;;;13.50;69.10;;;;;;4991350;28;20042;-50
2023/09/24 02:04:01;;;;;;;4.35;2.67;;;13.60;69.40;;;;;;4989930;28;20062;-52
2023/09/24 02:06:34;;;;;;;;;;;13.60;69.40;;;;;;5010099;28;20050;-50
2023/09/24 02:09:02;;;;;;;3.95;2.30;;;13.70;69.90;;;;;;5031620;22;19928;-45
2023/09/24 02:11:32;;;;;;;2.58;2.38;;;13.70;69.20;;;;;;5017307;28;20049;-45
2023/09/24 02:14:03;;;;;;;3.35;2.30;;;13.60;69.30;;;;;;5022221;28;20049;-44
2023/09/24 02:16:38;;;;;;;3.72;2.47;;;13.70;69.40;;;;;;5014236;28;20042;-44
2023/09/24 02:19:07;;;;;;;5.68;2.42;;;13.70;69.50;;;;;;5000448;28;20045;-45
2023/09/24 02:21:33;;;;;;;3.20;2.20;;;13.70;69.50;;;;;;5010595;28;20659;-43
2023/09/24 02:24:04;;;;;;;3.28;1.90;;;13.70;69.50;;;;;;5017007;28;20044;-45
2023/09/24 02:26:38;;;;;;;7.13;2.83;;;13.70;69.40;;;;;;5011792;28;20120;-44
2023/09/24 02:29:05;;;;;;;4.00;2.63;;;13.70;69.40;;;;;;5007913;28;20060;-44
2023/09/24 02:31:34;;;;;;;3.45;2.13;;;13.70;69.40;;;;;;5006942;28;20192;-46
2023/09/24 02:34:01;;;;;;;3.22;2.05;;;13.70;69.40;;;;;;5003669;28;20079;-45
2023/09/24 02:36:27;;;;;;;3.47;2.13;;;13.70;69.30;;;;;;5000577;28;20046;-44
2023/09/24 02:38:56;;;;;;;2.50;2.10;;;13.70;69.10;;;;;;5008072;28;20088;-45
2023/09/24 02:41:25;;;;;;;3.35;2.03;;;13.50;69.00;;;;;;5004014;28;20046;-47
2023/09/24 02:43:54;;;;;;;4.80;2.40;;;13.60;68.90;;;;;;4997151;28;20514;-45
2023/09/24 02:46:21;;;;;;;2.13;1.60;;;13.60;68.70;;;;;;5018238;28;20045;-44
2023/09/24 02:48:57;;;;;;;2.78;2.35;;;13.60;68.60;;;;;;5025262;28;20042;-48
2023/09/24 02:51:29;;;;;;;4.20;2.97;;;13.60;68.60;;;;;;5020112;28;20508;-45
2023/09/24 02:53:56;;;;;;;2.80;2.35;;;13.60;68.60;;;;;;4989608;28;20042;-48
2023/09/24 02:56:23;;;;;;;4.18;1.98;;;13.60;68.70;;;;;;5016726;28;20034;-45
2023/09/24 02:58:49;;;;;;;3.97;2.03;;;13.60;68.60;;;;;;5006582;28;20466;-43
2023/09/24 03:01:20;;;;;;;6.90;2.45;;;13.50;68.40;;;;;;5004959;28;20072;-45
2023/09/24 03:03:46;;;;;;;2.90;1.75;;;13.50;68.40;;;;;;5017042;28;20053;-44
2023/09/24 03:06:13;;;;;;;1.88;1.63;;;13.50;68.40;;;;;;4993517;28;20037;-45
2023/09/24 03:08:40;;;;;;;1.98;1.73;;;13.40;68.30;;;;;;5006286;28;20587;-45
2023/09/24 03:11:15;;;;;;;3.13;1.98;;;13.40;68.20;;;;;;5008372;28;20034;-45
2023/09/24 03:13:42;;;;;;;1.60;1.50;;;13.40;68.30;;;;;;5012344;28;20120;-45
2023/09/24 03:16:10;;;;;;;3.33;2.20;;;13.40;68.20;;;;;;4998446;28;20046;-46
2023/09/24 03:18:39;;;;;;;3.97;1.83;;;13.40;68.20;;;;;;5023109;28;20079;-46
2023/09/24 03:21:12;;;;;;;3.47;1.90;;;13.30;68.20;;;;;;5014223;28;20042;-46
2023/09/24 03:23:39;;;;;;;1.88;1.73;;;13.30;68.20;;;;;;5022932;28;20081;-46
2023/09/24 03:26:06;;;;;;;3.55;2.28;;;13.30;68.30;;;;;;5022637;28;20038;-47
2023/09/24 03:28:33;;;;;;;1.73;1.63;;;13.20;68.40;;;;;;5004561;28;20054;-46
2023/09/24 03:31:00;;;;;;;2.45;1.70;;;13.20;68.30;;;;;;5014454;28;20065;-46
2023/09/24 03:33:28;;;;;;;2.38;1.67;;;13.20;68.40;;;;;;5015477;28;20042;-46
2023/09/24 03:35:57;;;;;;;2.70;1.35;;;13.10;68.40;;;;;;5001657;28;20262;-43
2023/09/24 03:38:23;;;;;;;8.07;2.20;;;13.10;68.60;;;;;;5004070;28;20373;-46
2023/09/24 03:40:53;;;;;;;1.77;1.60;;;13.20;68.60;;;;;;4995730;28;20041;-48
2023/09/24 03:43:22;;;;;;;3.72;1.90;;;13.10;68.60;;;;;;5008644;28;20042;-46
2023/09/24 03:45:51;;;;;;;1.73;1.63;;;13.10;68.70;;;;;;5005695;28;20140;-47
2023/09/24 03:48:19;;;;;;;2.30;1.75;;;13.10;68.70;;;;;;4997107;28;20569;-51
2023/09/24 03:50:46;;;;;;;4.32;1.80;;;13.10;68.90;;;;;;5003723;28;20069;-50
2023/09/24 03:53:13;;;;;;;4.15;2.30;;;13.10;69.00;;;;;;5006955;28;20034;-46
2023/09/24 03:55:40;;;;;;;3.03;2.05;;;13.10;69.20;;;;;;5006218;28;20594;-46
2023/09/24 03:58:10;;;;;;;2.63;1.83;;;13.10;69.40;;;;;;4981792;28;20101;-45
2023/09/24 04:00:37;;;;;;;4.43;2.35;;;13.10;69.60;;;;;;5012832;28;20089;-48
2023/09/24 04:03:05;;;;;;;3.00;1.88;;;13.10;69.80;;;;;;5017633;28;20224;-49
2023/09/24 04:05:33;;;;;;;3.25;2.08;;;13.10;69.80;;;;;;4995875;28;20397;-47
2023/09/24 04:08:03;;;;;;;4.20;2.17;;;13.10;69.90;;;;;;5015432;28;20473;-49
2023/09/24 04:10:30;;;;;;;2.55;2.00;;;13.10;70.00;;;;;;4996969;28;20124;-50
2023/09/24 04:13:00;;;;;;;5.43;2.35;;;13.10;70.10;;;;;;5016181;28;20076;-50
2023/09/24 04:15:31;;;;;;;2.30;2.10;;;13.10;70.20;;;;;;5017766;28;20046;-50
2023/09/24 04:17:59;;;;;;;3.72;1.83;;;13.10;70.30;;;;;;5011174;28;20042;-47
2023/09/24 04:20:32;;;;;;;4.43;2.38;;;13.10;70.30;;;;;;5011034;28;20045;-47
2023/09/24 04:22:59;;;;;;;1.67;1.58;;;13.20;70.20;;;;;;5024724;28;20052;-51
2023/09/24 04:25:29;;;;;;;4.80;2.40;;;13.10;69.90;;;;;;5012906;28;20519;-49
2023/09/24 04:27:58;;;;;;;4.43;2.30;;;13.20;69.80;;;;;;5022803;28;20084;-50
2023/09/24 04:30:26;;;;;;;6.25;2.35;;;13.10;69.60;;;;;;5019319;28;20673;-46
2023/09/24 04:32:54;;;;;;;3.88;2.25;;;13.10;69.40;;;;;;5015237;28;20048;-46
2023/09/24 04:35:21;;;;;;;2.00;1.80;;;13.10;69.20;;;;;;5009108;28;20412;-48
2023/09/24 04:37:49;;;;;;;4.15;2.03;;;13.10;69.10;;;;;;5020257;28;20068;-46
2023/09/24 04:40:18;;;;;;;3.47;2.10;;;13.10;68.90;;;;;;5020898;28;20047;-48
2023/09/24 04:42:47;;;;;;;2.38;2.17;;;13.10;68.80;;;;;;5023005;28;20049;-49
2023/09/24 04:45:17;;;;;;;2.75;1.95;;;13.00;68.60;;;;;;5012618;28;20076;-48
2023/09/24 04:47:46;;;;;;;3.53;2.30;;;13.00;68.40;;;;;;5021963;28;20050;-45
2023/09/24 04:50:13;;;;;;;2.88;1.90;;;12.90;68.30;;;;;;5021254;28;20042;-50
2023/09/24 04:52:44;;;;;;;4.93;2.25;;;12.90;68.20;;;;;;5016986;28;20046;-47
2023/09/24 04:55:13;;;;;;;3.10;1.90;;;12.80;68.10;;;;;;5021098;28;20045;-48
2023/09/24 04:57:42;;;;;;;4.57;2.35;;;12.90;68.10;;;;;;5021356;28;20049;-45
2023/09/24 05:00:14;;;;;;;2.85;2.33;;;12.80;68.00;;;;;;5022789;28;20045;-45
2023/09/24 05:02:43;;;;;;;2.88;1.90;;;12.80;67.90;;;;;;5013827;28;20042;-46
2023/09/24 05:05:11;;;;;;;4.82;2.22;;;12.70;68.00;;;;;;5007775;28;20562;-49
2023/09/24 05:07:41;;;;;;;3.53;2.60;;;12.70;68.10;;;;;;5010977;28;20038;-46
2023/09/24 05:10:12;;;;;;;3.42;2.47;;;12.60;68.30;;;;;;5017002;28;20105;-50
2023/09/24 05:12:40;;;;;;;3.80;2.28;;;12.60;68.40;;;;;;5012914;28;20074;-48
2023/09/24 05:15:11;;;;;;;2.78;2.42;;;12.60;68.80;;;;;;5021981;28;20041;-45
2023/09/24 05:17:37;;;;;;;3.15;2.13;;;12.60;69.10;;;;;;5011809;28;20050;-47
2023/09/24 05:20:07;;;;;;;4.53;2.90;;;12.60;69.40;;;;;;5023683;28;20072;-45
2023/09/24 05:22:37;;;;;;;2.38;2.17;;;12.50;69.60;;;;;;5018304;28;20389;-46
2023/09/24 05:25:04;;;;;;;3.33;2.05;;;12.50;69.70;;;;;;5016352;28;20069;-48
2023/09/24 05:27:34;;;;;;;3.25;2.40;;;12.60;70.00;;;;;;5019126;28;20136;-51
2023/09/24 05:30:04;;;;;;;4.10;2.17;;;12.60;70.20;;;;;;5021360;28;20133;-48
2023/09/24 05:32:35;;;;;;;4.15;2.00;;;12.60;70.20;;;;;;5005883;28;20125;-45
2023/09/24 05:35:03;;;;;;;3.13;2.30;;;12.60;70.20;;;;;;5013622;28;20080;-46
2023/09/24 05:37:29;;;;;;;4.40;2.17;;;12.60;70.20;;;;;;5014695;28;20049;-45
2023/09/24 05:39:56;;;;;;;3.08;2.35;;;12.60;70.10;;;;;;5022922;28;20117;-47
2023/09/24 05:42:24;;;;;;;5.25;1.92;;;12.60;70.10;;;;;;5015997;28;20500;-49
2023/09/24 05:44:51;;;;;;;2.90;2.00;;;12.70;70.10;;;;;;5004329;28;20102;-53
2023/09/24 05:47:20;;;;;;;3.00;1.90;;;12.60;70.00;;;;;;4996028;28;20042;-47
2023/09/24 05:49:51;;;;;;;1.95;1.75;;;12.60;69.90;;;;;;5013123;28;20124;-47
2023/09/24 05:52:19;;;;;;;1.88;1.63;;;12.70;69.90;;;;;;5007295;28;20059;-50
2023/09/24 05:54:45;;;;;;;3.05;2.25;;;12.70;69.90;;;;;;5003722;28;20189;-46
2023/09/24 05:57:12;;;;;;;2.78;2.05;;;12.70;70.00;;;;;;5007833;28;20048;-46
2023/09/24 05:59:39;;;;;;;2.05;1.80;;;12.70;70.00;;;;;;5009049;28;20512;-48
2023/09/24 06:02:06;;;;;;;2.63;2.15;;;12.70;70.00;;;;;;5017149;28;20048;-49
2023/09/24 06:04:32;;;;;;;2.50;2.03;;;12.70;70.00;;;;;;5006010;28;20092;-45
2023/09/24 06:06:59;;;;;;;2.53;2.35;;;12.70;70.00;;;;;;5010024;28;20045;-47
2023/09/24 06:09:28;;;;;;;2.78;2.08;;;12.70;70.20;;;;;;5009464;28;20092;-46
2023/09/24 06:11:55;;;;;;;5.68;2.30;;;12.80;70.40;;;;;;5012869;28;20408;-47
2023/09/24 06:14:22;;;;;;;2.75;1.85;;;12.80;70.40;;;;;;5009062;28;20097;-51
2023/09/24 06:16:48;;;;;;;2.22;2.03;;;12.80;70.50;;;;;;5012959;28;20056;-49
2023/09/24 06:19:15;;;;;;;2.33;2.00;;;12.80;70.60;;;;;;5012023;28;20049;-51
2023/09/24 06:21:42;;;;;;;2.65;2.08;;;12.90;70.70;;;;;;5007859;28;20129;-52
2023/09/24 06:24:08;;;;;;;2.30;2.10;;;12.90;70.70;;;;;;5005370;28;20141;-49
2023/09/24 06:26:38;;;;;;;2.88;1.95;;;12.90;70.70;;;;;;5009382;28;20050;-51
2023/09/24 06:29:05;;;;;;;2.60;1.88;;;13.00;70.70;;;;;;4999884;28;20042;-49
2023/09/24 06:31:38;;;;;;;3.22;2.20;;;13.00;70.70;;;;;;5000046;28;20214;-52
2023/09/24 06:34:06;;;;;;;2.45;2.15;;;13.00;70.70;;;;;;5005440;28;20092;-50
2023/09/24 06:36:32;;;;;;;2.08;1.80;;;13.10;71.00;;;;;;5002522;28;20060;-53
2023/09/24 06:39:00;;;;;;;2.72;1.80;;;13.10;71.00;;;;;;5009549;28;20046;-53
2023/09/24 06:41:29;;;;;;;3.60;2.05;;;13.10;71.10;;;;;;5013631;28;20096;-52
2023/09/24 06:43:56;;;;;;;3.03;1.77;;;13.20;71.20;;;;;;5009974;28;20042;-52
2023/09/24 06:46:23;;;;;;;2.47;2.13;;;13.20;71.40;;;;;;5011137;28;20045;-52
2023/09/24 06:48:51;;;;;;;2.65;2.30;;;13.30;71.50;;;;;;5008205;28;20072;-51
2023/09/24 06:51:20;;;;;;;2.30;1.70;;;13.30;71.60;;;;;;5012094;28;20680;-53
2023/09/24 06:53:50;;;;;;;3.85;2.05;;;13.40;71.80;;;;;;5007914;28;20411;-51
2023/09/24 06:56:17;;;;;;;4.28;2.28;;;13.40;71.90;;;;;;5006209;28;20047;-49
2023/09/24 06:58:44;;;;;;;2.00;1.80;;;13.50;72.10;;;;;;5015683;28;20190;-49
2023/09/24 07:01:10;;;;;;;2.03;1.67;;;13.50;72.10;;;;;;5017231;28;20507;-49
2023/09/24 07:03:39;;;;;;;2.92;2.53;;;13.60;72.20;;;;;;5012551;28;20089;-49
2023/09/24 07:06:07;;;;;;;2.67;2.08;;;13.70;72.30;;;;;;5012096;28;20042;-52
2023/09/24 07:08:34;;;;;;;5.32;2.40;;;13.70;72.30;;;;;;5015007;28;20054;-50
2023/09/24 07:11:19;;;;;;;2.45;1.92;;;13.80;72.30;;;;;;5017155;28;20049;-51
2023/09/24 07:13:46;;;;;;;4.25;1.63;;;13.90;73.00;;;;;;5009305;28;20050;-49
2023/09/24 07:16:13;;;;;;;3.47;1.55;;;13.90;72.30;;;;;;5015193;28;20052;-51
2023/09/24 07:18:41;;;;;;;5.63;1.80;;;14.00;72.50;;;;;;5009123;28;20085;-56
2023/09/24 07:21:08;;;;;;;3.15;1.75;;;14.00;72.60;;;;;;5008462;28;20041;-49
2023/09/24 07:23:54;;;;;;;2.28;1.25;;;14.10;73.30;;;;;;5012775;28;20502;-50
2023/09/24 07:26:26;;;;;;;3.25;1.42;;;14.10;72.60;;;;;;5014053;28;20038;-51
2023/09/24 07:28:53;;;;;;;3.65;1.70;;;14.10;72.50;;;;;;5012485;28;20416;-51
2023/09/24 07:31:22;;;;;;;2.75;1.33;;;14.20;72.60;;;;;;5014044;28;20097;-51
2023/09/24 07:33:56;;;;;;;4.55;1.65;;;14.30;72.80;;;;;;5010951;28;20114;-52
2023/09/24 07:36:23;;;;;;;3.05;1.20;;;14.30;72.80;;;;;;5012935;28;20556;-53
2023/09/24 07:38:53;;;;;;;2.75;1.33;;;14.30;72.70;;;;;;5011745;28;20038;-50
2023/09/24 07:41:21;;;;;;;4.10;1.30;;;14.40;72.80;;;;;;5013855;28;20046;-50
2023/09/24 07:43:47;;;;;;;2.33;1.17;;;14.40;72.90;;;;;;5014027;28;20413;-53
2023/09/24 07:46:15;;;;;;;2.03;1.52;;;14.50;73.00;;;;;;5014864;28;20061;-52
2023/09/24 07:48:49;;;;;;;2.42;1.20;;;14.50;73.10;;;;;;5004564;28;20385;-51
2023/09/24 07:51:16;;;;;;;3.42;1.35;;;14.50;73.30;;;;;;5008893;28;20045;-55
2023/09/24 07:53:47;;;;;;;3.10;1.20;;;14.60;73.20;;;;;;5010566;28;20100;-51
2023/09/24 07:56:14;;;;;;;1.73;1.00;;;14.60;73.30;;;;;;5018405;28;20045;-49
2023/09/24 07:58:42;;;;;;;2.92;1.45;;;14.70;73.40;;;;;;5013013;28;20124;-53
2023/09/24 08:01:10;;;;;;;4.35;1.58;;;14.70;73.60;;;;;;5018864;28;20042;-51
2023/09/24 08:03:38;;;;;;;3.78;1.60;;;14.80;73.90;;;;;;5012393;28;20124;-50
2023/09/24 08:06:06;;;;;;;1.55;1.40;;;14.80;73.90;;;;;;5014499;28;20097;-52
2023/09/24 08:08:34;;;;;;;2.90;1.52;;;14.80;73.90;;;;;;5016116;28;20105;-52
2023/09/24 08:11:17;;;;;;;2.60;1.10;;;14.90;73.80;;;;;;5015659;28;20116;-50
2023/09/24 08:13:44;;;;;;;4.93;2.17;;;14.90;73.60;;;;;;5008849;28;20137;-54
2023/09/24 08:16:11;;;;;;;2.17;1.00;;;15.00;73.70;;;;;;5016942;28;20074;-49
2023/09/24 08:18:37;;;;;;;1.73;1.20;;;15.00;74.40;;;;;;5015880;28;20085;-50
2023/09/24 08:21:05;;;;;;;2.60;1.33;;;15.10;74.00;;;;;;5014447;28;20381;-53
2023/09/24 08:23:32;;;;;;;2.03;1.20;;;15.20;74.10;;;;;;5013572;28;20041;-50
2023/09/24 08:26:00;;;;;;;3.10;0.93;;;15.20;74.10;;;;;;5017321;28;20038;-53
2023/09/24 08:28:26;;;;;;;3.15;1.00;;;15.30;74.00;;;;;;5009473;28;20120;-49
2023/09/24 08:30:55;;;;;;;3.40;1.08;;;15.40;74.10;;;;;;5013539;28;20429;-53
2023/09/24 08:33:22;;;;;;;1.20;1.10;;;15.40;74.10;;;;;;5013735;28;20069;-51
2023/09/24 08:35:49;;;;;;;3.08;1.23;;;15.50;74.10;;;;;;5008605;28;20060;-54
2023/09/24 08:38:18;;;;;;;1.85;0.95;;;15.60;74.10;;;;;;5016114;28;20558;-50
2023/09/24 08:40:44;;;;;;;3.65;1.48;;;15.60;74.00;;;;;;5012815;28;20043;-51
2023/09/24 08:43:21;;;;;;;3.72;1.08;;;15.70;73.70;;;;;;5007441;28;20045;-54
2023/09/24 08:45:48;;;;;;;2.42;1.75;;;15.80;73.90;;;;;;5008931;28;20109;-49
2023/09/24 08:48:17;;;;;;;2.00;1.13;;;15.80;73.50;;;;;;5071393;23;20526;-57
2023/09/24 08:50:44;;;;;;;2.90;1.10;;;15.90;73.30;;;;;;5051710;28;20589;-57
2023/09/24 08:53:12;;;;;;;3.95;1.40;;;15.90;73.80;;;;;;5037868;28;20089;-57
2023/09/24 08:55:43;;;;;;;5.22;1.33;;;16.00;73.30;;;;;;5031889;28;20120;-56
2023/09/24 08:58:11;;;;;;;3.53;0.98;;;16.10;73.20;;;;;;5024866;28;20041;-54
2023/09/24 09:00:39;;;;;;;2.22;1.00;;;16.20;73.00;;;;;;5011222;28;20551;-50
2023/09/24 09:03:06;;;;;;;3.70;1.30;;;16.20;72.80;;;;;;5024041;28;20052;-54
2023/09/24 09:05:37;;;;;;;1.85;1.20;;;16.30;72.80;;;;;;5023361;28;20042;-53
2023/09/24 09:08:04;;;;;;;3.00;1.00;;;16.40;72.90;;;;;;5026196;28;20037;-55
2023/09/24 09:10:33;;;;;;;3.40;1.20;;;16.40;72.70;;;;;;5031398;28;20045;-54
2023/09/24 09:13:06;;;;;;;2.65;0.95;;;16.50;72.90;;;;;;5024782;28;20515;-55
2023/09/24 09:15:33;;;;;;;1.60;0.98;;;16.60;72.50;;;;;;5029356;28;20053;-54
2023/09/24 09:18:00;;;;;;;4.10;0.90;;;16.60;71.90;;;;;;5029786;28;20473;-55
2023/09/24 09:20:45;;;;;;;2.30;0.82;;;16.70;71.80;;;;;;5022671;28;20037;-54
2023/09/24 09:23:15;;;;;;;2.15;0.70;;;16.80;71.70;;;;;;5025054;28;20124;-52
2023/09/24 09:25:50;;;;;;;2.95;1.10;;;16.80;71.20;;;;;;5024393;28;20570;-54
2023/09/24 09:28:27;;;;;;;3.05;1.33;;;16.90;70.80;;;;;;5029076;28;20049;-55
2023/09/24 09:31:06;;;;;;;2.50;1.30;;;16.90;70.50;;;;;;5023591;28;20041;-54
2023/09/24 09:33:39;;;;;;;3.03;1.17;;;16.90;70.60;;;;;;5022499;28;20057;-55
2023/09/24 09:36:33;;;;;;;2.92;1.05;;;17.00;70.40;;;;;;5027589;28;20056;-55
2023/09/24 09:39:03;;;;;;;2.28;1.02;;;17.10;70.30;;;;;;5028287;28;20076;-55
2023/09/24 09:41:33;;;;;;;3.15;0.90;;;17.10;70.20;;;;;;5029369;28;20381;-55
2023/09/24 09:44:07;;;;;;;1.05;0.70;;;17.20;69.60;;;;;;5024134;28;20093;-55
2023/09/24 09:46:35;;;;;;;2.03;1.00;;;17.20;69.50;;;;;;5022885;28;20044;-54
2023/09/24 09:49:06;;;;;;;2.83;1.13;;;17.30;69.90;;;;;;5026959;28;20049;-55
2023/09/24 09:51:51;;;;;;;2.28;1.00;;;17.40;69.20;;;;;;5027080;28;20520;-55
2023/09/24 09:54:19;;;;;;;4.25;1.05;;;17.40;68.50;;;;;;5028311;28;20041;-55
2023/09/24 09:56:47;;;;;;;1.67;1.00;;;17.50;68.80;;;;;;5015329;28;20049;-54
2023/09/24 09:59:15;;;;;;;3.25;1.23;;;17.50;68.80;;;;;;5023968;28;20042;-55
2023/09/24 10:01:42;;;;;;;0.77;0.70;;;17.60;68.50;;;;;;5029962;28;20531;-54
2023/09/24 10:04:09;;;;;;;1.90;0.77;;;17.70;68.50;;;;;;5025179;28;20041;-55
2023/09/24 10:06:38;;;;;;;1.33;0.70;;;17.70;68.40;;;;;;5029578;28;20080;-55
2023/09/24 10:09:27;;;;;;;2.25;0.70;;;17.80;68.10;;;;;;5030233;28;20538;-55
2023/09/24 10:11:56;;;;;;;1.92;0.93;;;17.90;67.90;;;;;;5024146;28;20049;-55
2023/09/24 10:14:40;;;;;;;2.53;1.13;;;17.90;67.60;;;;;;5026148;28;20415;-55
2023/09/24 10:17:22;;;;;;;2.75;1.23;;;18.00;67.30;;;;;;5027142;28;20052;-55
2023/09/24 10:19:55;;;;;;;2.53;0.90;;;18.10;67.20;;;;;;5030966;28;20108;-55
2023/09/24 10:22:34;;;;;;;2.15;1.13;;;18.20;66.90;;;;;;5029870;28;20984;-54
2023/09/24 10:25:22;;;;;;;4.35;1.00;;;18.30;66.70;;;;;;5020623;28;20037;-54
2023/09/24 10:28:07;;;;;;;3.63;1.77;;;18.30;66.70;;;;;;5029424;28;20116;-55
2023/09/24 10:31:05;;;;;;;4.00;1.10;;;18.40;65.80;;;;;;5029390;28;20045;-53
2023/09/24 10:33:57;;;;;;;3.15;0.82;;;18.40;65.90;;;;;;5014312;28;20423;-53
2023/09/24 10:36:33;;;;;;;1.92;0.98;;;18.50;65.90;;;;;;5025375;28;20046;-55
2023/09/24 10:39:11;;;;;;;1.88;0.80;;;18.50;65.70;;;;;;5018102;28;20096;-55
2023/09/24 10:42:10;;;;;;;2.10;0.82;;;18.60;65.80;;;;;;5023349;28;20574;-55
2023/09/24 10:44:37;;;;;;;3.67;0.90;;;18.70;65.30;;;;;;5020015;28;20038;-55
2023/09/24 10:47:25;;;;;;;2.53;0.88;;;18.70;65.20;;;;;;5019302;28;20034;-53
2023/09/24 10:50:05;;;;;;;2.22;1.80;;;18.80;64.20;;;;;;5030706;28;20100;-55
2023/09/24 10:53:01;;;;;;;2.38;0.82;;;18.90;64.20;;;;;;5019844;28;20132;-55
2023/09/24 10:55:33;;;;;;;1.05;0.70;;;18.90;64.10;;;;;;5015709;28;20121;-55
2023/09/24 10:58:06;;;;;;;1.02;0.60;;;19.00;64.60;;;;;;5016153;28;20057;-55
2023/09/24 11:00:34;;;;;;;3.85;1.02;;;19.10;64.40;;;;;;5010314;28;20508;-54
2023/09/24 11:03:06;;;;;;;1.30;0.80;;;19.10;63.90;;;;;;5019614;28;20037;-55
2023/09/24 11:05:41;;;;;;;1.73;0.88;;;19.20;63.40;;;;;;5020828;28;20499;-54
2023/09/24 11:08:10;;;;;;;1.30;0.70;;;19.20;64.00;;;;;;5018099;28;20045;-55
2023/09/24 11:10:36;;;;;;;1.58;0.93;;;19.30;63.60;;;;;;5015395;28;20535;-54
2023/09/24 11:13:04;;;;;;;2.45;1.10;;;19.40;64.10;;;;;;5023006;28;20126;-55
2023/09/24 11:15:37;;;;;;;1.02;0.82;;;19.40;62.80;;;;;;5020013;28;20840;-55
2023/09/24 11:18:05;;;;;;;2.90;0.95;;;19.50;62.30;;;;;;5024793;28;20108;-55
2023/09/24 11:20:33;;;;;;;2.45;0.80;;;19.50;62.70;;;;;;5021137;28;20057;-55
2023/09/24 11:23:02;;;;;;;6.72;1.40;;;19.60;62.00;;;;;;5026617;28;20055;-55
2023/09/24 11:25:30;;;;;;;1.45;0.73;;;19.60;61.70;;;;;;5024923;28;20042;-54
2023/09/24 11:28:00;;;;;;;1.85;0.80;;;19.80;61.70;;;;;;5017574;28;20050;-56
2023/09/24 11:30:42;;;;;;;2.95;0.95;;;19.80;60.80;;;;;;5025441;28;20452;-54
2023/09/24 11:33:17;;;;;;;5.28;1.63;;;19.90;60.40;;;;;;5016652;28;20499;-55
2023/09/24 11:35:45;;;;;;;3.00;0.80;;;19.90;60.10;;;;;;5024146;28;20109;-56
2023/09/24 11:38:12;;;;;;;3.38;0.90;;;20.00;61.20;;;;;;5024239;28;20052;-55
2023/09/24 11:40:41;;;;;;;2.17;1.10;;;20.10;61.10;;;;;;5028478;28;20049;-55
2023/09/24 11:43:13;;;;;;;4.63;1.10;;;20.20;60.30;;;;;;5021560;28;20042;-55
2023/09/24 11:45:53;;;;;;;;;;;20.20;59.70;;;;;;5027195;28;20038;-55
2023/09/24 11:48:25;;;;;;;1.70;0.80;;;20.40;60.90;;;;;;5018385;28;19979;-55
2023/09/24 11:50:58;;;;;;;1.30;0.90;;;20.50;58.40;;;;;;5015353;28;20040;-55
2023/09/24 11:53:28;;;;;;;1.15;0.80;;;20.50;58.30;;;;;;5024757;28;20042;-54
2023/09/24 11:55:56;;;;;;;5.47;1.08;;;20.60;58.10;;;;;;5027149;28;20089;-55
2023/09/24 11:58:26;;;;;;;1.10;0.60;;;20.70;58.40;;;;;;5027324;28;20061;-55
2023/09/24 12:00:55;;;;;;;2.13;0.90;;;20.80;57.90;;;;;;5023578;28;20597;-55
2023/09/24 12:03:23;;;;;;;1.50;0.73;;;20.90;57.40;;;;;;5019768;28;20045;-52
2023/09/24 12:05:51;;;;;;;1.60;0.77;;;20.90;57.90;;;;;;5026158;28;20073;-55
2023/09/24 12:08:18;;;;;;;1.23;0.80;;;21.00;57.50;;;;;;5024018;28;20053;-56
2023/09/24 12:10:47;;;;;;;0.80;0.70;;;21.10;57.20;;;;;;5016994;28;20073;-55
2023/09/24 12:13:16;;;;;;;1.33;0.77;;;21.20;57.60;;;;;;5024859;28;20045;-55
2023/09/24 12:15:42;;;;;;;2.03;1.02;;;21.30;57.00;;;;;;5015305;28;20574;-55
2023/09/24 12:18:10;;;;;;;1.63;0.80;;;21.40;56.50;;;;;;5022773;28;20052;-55
2023/09/24 12:20:39;;;;;;;0.82;0.63;;;21.50;56.20;;;;;;5023642;28;20045;-54
2023/09/24 12:23:08;;;;;;;1.40;0.73;;;21.60;56.30;;;;;;5021198;28;20511;-55
2023/09/24 12:25:42;;;;;;;1.27;0.85;;;21.70;56.00;;;;;;5015417;28;20066;-54
2023/09/24 12:28:11;;;;;;;0.77;0.63;;;21.80;55.40;;;;;;5016491;28;20052;-55
2023/09/24 12:30:38;;;;;;;1.02;0.73;;;21.80;55.80;;;;;;5018142;28;20049;-54
2023/09/24 12:33:08;;;;;;;1.52;0.95;;;21.90;55.60;;;;;;5015967;28;20049;-55
2023/09/24 12:35:40;;;;;;;;;;;21.90;55.50;;;;;;5026775;28;20042;-56
2023/09/24 12:38:08;;;;;;;2.35;0.80;;;22.10;56.70;;;;;;5025152;28;19927;-55
2023/09/24 12:40:35;;;;;;;0.85;0.57;;;22.10;55.90;;;;;;5028639;28;20061;-54
2023/09/24 12:43:02;;;;;;;2.75;0.65;;;22.20;55.10;;;;;;5029026;28;20045;-55
2023/09/24 12:45:29;;;;;;;1.42;0.70;;;22.20;54.50;;;;;;5021285;28;20045;-53
2023/09/24 12:47:56;;;;;;;3.90;0.82;;;22.20;54.50;;;;;;5015091;28;20055;-56
2023/09/24 12:50:23;;;;;;;2.10;0.70;;;22.20;54.50;;;;;;5017311;28;20033;-52
2023/09/24 12:52:49;;;;;;;1.55;0.70;;;22.30;54.10;;;;;;5027768;28;20096;-54
2023/09/24 12:55:16;;;;;;;1.30;0.77;;;22.30;54.50;;;;;;5025538;28;20454;-56
2023/09/24 12:57:45;;;;;;;1.05;0.60;;;22.40;53.30;;;;;;5014905;28;20046;-56
2023/09/24 13:00:12;;;;;;;1.60;0.85;;;22.50;53.50;;;;;;5024801;28;20040;-56
2023/09/24 13:02:46;;;;;;;0.57;0.57;;;22.50;53.00;;;;;;5021335;28;20144;-56